sensor_id;sensor_type;location;lat;lon;timestamp;temperature;humidity
21522;DHT22;10922;45.572;10.002;2023-04-05T00:01:30;4.50;99.90
21522;DHT22;10922;45.572;10.002;2023-04-05T00:03:56;4.40;99.90
21522;DHT22;10922;45.572;10.002;2023-04-05T00:06:27;4.30;99.90
21522;DHT22;10922;45.572;10.002;2023-04-05T00:09:01;4.60;99.90
21522;DHT22;10922;45.572;10.002;2023-04-05T00:11:30;4.60;99.90
21522;DHT22;10922;45.572;10.002;2023-04-05T00:13:57;4.70;99.90
21522;DHT22;10922;45.572;10.002;2023-04-05T00:16:23;4.90;99.90
21522;DHT22;10922;45.572;10.002;2023-04-05T00:18:48;5.00;99.90
21522;DHT22;10922;45.572;10.002;2023-04-05T00:21:20;5.00;99.90
21522;DHT22;10922;45.572;10.002;2023-04-05T00:23:46;5.10;99.90
21522;DHT22;10922;45.572;10.002;2023-04-05T00:26:13;5.20;99.90
21522;DHT22;10922;45.572;10.002;2023-04-05T00:28:39;5.30;99.90
21522;DHT22;10922;45.572;10.002;2023-04-05T00:31:05;5.30;99.90
21522;DHT22;10922;45.572;10.002;2023-04-05T00:33:31;5.40;99.90
21522;DHT22;10922;45.572;10.002;2023-04-05T00:35:56;5.40;99.90
21522;DHT22;10922;45.572;10.002;2023-04-05T00:38:22;5.40;99.90
21522;DHT22;10922;45.572;10.002;2023-04-05T00:40:48;5.60;99.90
21522;DHT22;10922;45.572;10.002;2023-04-05T00:43:14;5.80;99.90
21522;DHT22;10922;45.572;10.002;2023-04-05T00:45:41;5.90;99.90
21522;DHT22;10922;45.572;10.002;2023-04-05T00:48:07;6.00;99.90
21522;DHT22;10922;45.572;10.002;2023-04-05T00:50:33;6.10;99.90
21522;DHT22;10922;45.572;10.002;2023-04-05T00:52:59;6.20;99.90
21522;DHT22;10922;45.572;10.002;2023-04-05T00:55:27;6.20;99.90
21522;DHT22;10922;45.572;10.002;2023-04-05T00:57:53;6.30;99.90
21522;DHT22;10922;45.572;10.002;2023-04-05T01:00:21;6.40;99.90
21522;DHT22;10922;45.572;10.002;2023-04-05T01:02:59;6.50;99.90
21522;DHT22;10922;45.572;10.002;2023-04-05T01:05:39;6.50;99.90
21522;DHT22;10922;45.572;10.002;2023-04-05T01:08:33;6.60;99.90
21522;DHT22;10922;45.572;10.002;2023-04-05T01:11:03;6.70;99.90
21522;DHT22;10922;45.572;10.002;2023-04-05T01:13:31;6.80;99.90
21522;DHT22;10922;45.572;10.002;2023-04-05T01:15:57;6.90;99.90
21522;DHT22;10922;45.572;10.002;2023-04-05T01:18:24;6.90;99.90
21522;DHT22;10922;45.572;10.002;2023-04-05T01:32:01;7.10;99.90
21522;DHT22;10922;45.572;10.002;2023-04-05T01:34:50;7.10;99.90
21522;DHT22;10922;45.572;10.002;2023-04-05T01:37:22;7.10;99.90
21522;DHT22;10922;45.572;10.002;2023-04-05T01:39:51;7.20;99.90
21522;DHT22;10922;45.572;10.002;2023-04-05T01:42:22;7.10;99.90
21522;DHT22;10922;45.572;10.002;2023-04-05T01:44:50;7.10;99.90
21522;DHT22;10922;45.572;10.002;2023-04-05T01:47:16;7.10;99.90
21522;DHT22;10922;45.572;10.002;2023-04-05T01:49:41;7.10;99.90
21522;DHT22;10922;45.572;10.002;2023-04-05T01:52:07;7.10;99.90
21522;DHT22;10922;45.572;10.002;2023-04-05T01:54:33;7.10;99.90
21522;DHT22;10922;45.572;10.002;2023-04-05T01:56:58;7.10;99.90
21522;DHT22;10922;45.572;10.002;2023-04-05T01:59:24;7.10;99.90
21522;DHT22;10922;45.572;10.002;2023-04-05T02:01:50;7.10;99.90
21522;DHT22;10922;45.572;10.002;2023-04-05T02:04:16;7.10;99.90
21522;DHT22;10922;45.572;10.002;2023-04-05T02:06:41;7.10;99.90
21522;DHT22;10922;45.572;10.002;2023-04-05T02:09:07;7.10;99.90
21522;DHT22;10922;45.572;10.002;2023-04-05T02:11:33;7.10;99.90
21522;DHT22;10922;45.572;10.002;2023-04-05T02:13:58;7.10;99.90
21522;DHT22;10922;45.572;10.002;2023-04-05T02:16:24;7.10;99.90
21522;DHT22;10922;45.572;10.002;2023-04-05T02:18:52;7.10;99.90
21522;DHT22;10922;45.572;10.002;2023-04-05T02:21:22;7.10;99.90
21522;DHT22;10922;45.572;10.002;2023-04-05T02:23:48;7.10;99.90
21522;DHT22;10922;45.572;10.002;2023-04-05T02:26:14;7.10;99.90
21522;DHT22;10922;45.572;10.002;2023-04-05T02:28:40;7.10;99.90
21522;DHT22;10922;45.572;10.002;2023-04-05T02:31:09;7.10;99.90
21522;DHT22;10922;45.572;10.002;2023-04-05T02:33:36;7.10;99.90
21522;DHT22;10922;45.572;10.002;2023-04-05T02:36:11;7.10;99.90
21522;DHT22;10922;45.572;10.002;2023-04-05T02:38:37;7.10;99.90
21522;DHT22;10922;45.572;10.002;2023-04-05T02:41:06;7.10;99.90
21522;DHT22;10922;45.572;10.002;2023-04-05T02:43:32;7.00;99.90
21522;DHT22;10922;45.572;10.002;2023-04-05T02:45:59;6.90;99.90
21522;DHT22;10922;45.572;10.002;2023-04-05T02:48:25;6.90;99.90
21522;DHT22;10922;45.572;10.002;2023-04-05T02:50:51;6.90;99.90
21522;DHT22;10922;45.572;10.002;2023-04-05T02:53:17;6.80;99.90
21522;DHT22;10922;45.572;10.002;2023-04-05T02:55:56;6.80;99.90
21522;DHT22;10922;45.572;10.002;2023-04-05T02:58:22;6.80;99.90
21522;DHT22;10922;45.572;10.002;2023-04-05T03:00:49;6.70;99.90
21522;DHT22;10922;45.572;10.002;2023-04-05T03:03:21;6.60;99.90
21522;DHT22;10922;45.572;10.002;2023-04-05T03:05:47;6.70;99.90
21522;DHT22;10922;45.572;10.002;2023-04-05T03:08:14;6.60;99.90
21522;DHT22;10922;45.572;10.002;2023-04-05T03:10:50;6.60;99.90
21522;DHT22;10922;45.572;10.002;2023-04-05T03:13:16;6.60;99.90
21522;DHT22;10922;45.572;10.002;2023-04-05T03:15:42;6.60;99.90
21522;DHT22;10922;45.572;10.002;2023-04-05T03:18:08;6.60;99.90
21522;DHT22;10922;45.572;10.002;2023-04-05T03:20:34;6.60;99.90
21522;DHT22;10922;45.572;10.002;2023-04-05T03:23:07;6.50;99.90
21522;DHT22;10922;45.572;10.002;2023-04-05T03:25:37;6.50;99.90
21522;DHT22;10922;45.572;10.002;2023-04-05T03:28:03;6.50;99.90
21522;DHT22;10922;45.572;10.002;2023-04-05T03:30:34;6.50;99.90
21522;DHT22;10922;45.572;10.002;2023-04-05T03:33:01;6.40;99.90
21522;DHT22;10922;45.572;10.002;2023-04-05T03:35:27;6.50;99.90
21522;DHT22;10922;45.572;10.002;2023-04-05T03:37:57;6.50;99.90
21522;DHT22;10922;45.572;10.002;2023-04-05T03:40:23;6.50;99.90
21522;DHT22;10922;45.572;10.002;2023-04-05T03:42:49;6.60;99.90
21522;DHT22;10922;45.572;10.002;2023-04-05T03:45:15;6.60;99.90
21522;DHT22;10922;45.572;10.002;2023-04-05T03:47:41;6.60;99.90
21522;DHT22;10922;45.572;10.002;2023-04-05T03:50:07;6.60;99.90
21522;DHT22;10922;45.572;10.002;2023-04-05T03:52:33;6.70;99.90
21522;DHT22;10922;45.572;10.002;2023-04-05T03:54:58;6.70;99.90
21522;DHT22;10922;45.572;10.002;2023-04-05T03:57:25;6.80;99.90
21522;DHT22;10922;45.572;10.002;2023-04-05T03:59:52;6.80;99.90
21522;DHT22;10922;45.572;10.002;2023-04-05T04:02:18;6.80;99.90
21522;DHT22;10922;45.572;10.002;2023-04-05T04:04:43;6.80;99.90
21522;DHT22;10922;45.572;10.002;2023-04-05T04:07:09;6.70;99.90
21522;DHT22;10922;45.572;10.002;2023-04-05T04:09:35;6.60;99.90
21522;DHT22;10922;45.572;10.002;2023-04-05T04:12:01;6.60;99.90
21522;DHT22;10922;45.572;10.002;2023-04-05T04:14:26;6.50;99.90
21522;DHT22;10922;45.572;10.002;2023-04-05T04:16:54;6.50;99.90
21522;DHT22;10922;45.572;10.002;2023-04-05T04:19:20;6.50;99.90
21522;DHT22;10922;45.572;10.002;2023-04-05T04:21:46;6.40;99.90
21522;DHT22;10922;45.572;10.002;2023-04-05T04:24:16;6.30;99.90
21522;DHT22;10922;45.572;10.002;2023-04-05T04:26:44;6.10;99.90
21522;DHT22;10922;45.572;10.002;2023-04-05T04:29:10;6.10;99.90
21522;DHT22;10922;45.572;10.002;2023-04-05T04:31:38;6.00;99.90
21522;DHT22;10922;45.572;10.002;2023-04-05T04:34:04;5.90;99.90
21522;DHT22;10922;45.572;10.002;2023-04-05T04:36:30;5.70;99.90
21522;DHT22;10922;45.572;10.002;2023-04-05T04:39:00;5.50;99.90
21522;DHT22;10922;45.572;10.002;2023-04-05T04:41:30;5.40;99.90
21522;DHT22;10922;45.572;10.002;2023-04-05T04:43:58;5.20;99.90
21522;DHT22;10922;45.572;10.002;2023-04-05T04:46:34;5.10;99.90
21522;DHT22;10922;45.572;10.002;2023-04-05T04:49:07;5.00;99.90
21522;DHT22;10922;45.572;10.002;2023-04-05T04:51:33;5.00;99.90
21522;DHT22;10922;45.572;10.002;2023-04-05T04:53:59;4.70;99.90
21522;DHT22;10922;45.572;10.002;2023-04-05T04:56:24;4.70;99.90
21522;DHT22;10922;45.572;10.002;2023-04-05T04:58:53;4.60;99.90
21522;DHT22;10922;45.572;10.002;2023-04-05T05:01:20;4.40;99.90
21522;DHT22;10922;45.572;10.002;2023-04-05T05:03:47;4.40;99.90
21522;DHT22;10922;45.572;10.002;2023-04-05T05:06:16;4.30;99.90
21522;DHT22;10922;45.572;10.002;2023-04-05T05:08:42;4.30;99.90
21522;DHT22;10922;45.572;10.002;2023-04-05T05:11:07;4.50;99.90
21522;DHT22;10922;45.572;10.002;2023-04-05T05:13:33;4.40;99.90
21522;DHT22;10922;45.572;10.002;2023-04-05T05:15:59;4.40;99.90
21522;DHT22;10922;45.572;10.002;2023-04-05T05:18:29;4.40;99.90
21522;DHT22;10922;45.572;10.002;2023-04-05T05:20:55;4.60;99.90
21522;DHT22;10922;45.572;10.002;2023-04-05T05:23:20;4.60;99.90
21522;DHT22;10922;45.572;10.002;2023-04-05T05:25:46;4.70;99.90
21522;DHT22;10922;45.572;10.002;2023-04-05T05:28:12;4.90;99.90
21522;DHT22;10922;45.572;10.002;2023-04-05T05:30:38;5.10;99.90
21522;DHT22;10922;45.572;10.002;2023-04-05T05:33:03;5.30;99.90
21522;DHT22;10922;45.572;10.002;2023-04-05T05:35:29;5.40;99.90
21522;DHT22;10922;45.572;10.002;2023-04-05T05:37:55;5.50;99.90
21522;DHT22;10922;45.572;10.002;2023-04-05T05:40:20;5.60;99.90
21522;DHT22;10922;45.572;10.002;2023-04-05T05:42:46;5.80;99.90
21522;DHT22;10922;45.572;10.002;2023-04-05T05:45:12;6.00;99.90
21522;DHT22;10922;45.572;10.002;2023-04-05T05:47:38;6.10;99.90
21522;DHT22;10922;45.572;10.002;2023-04-05T05:50:04;6.20;99.90
21522;DHT22;10922;45.572;10.002;2023-04-05T05:52:30;6.30;99.90
21522;DHT22;10922;45.572;10.002;2023-04-05T05:54:55;6.50;99.90
21522;DHT22;10922;45.572;10.002;2023-04-05T05:57:21;6.70;99.90
21522;DHT22;10922;45.572;10.002;2023-04-05T05:59:47;6.80;99.90
21522;DHT22;10922;45.572;10.002;2023-04-05T06:02:13;7.10;99.90
21522;DHT22;10922;45.572;10.002;2023-04-05T06:04:39;7.30;99.90
21522;DHT22;10922;45.572;10.002;2023-04-05T06:07:05;7.50;99.90
21522;DHT22;10922;45.572;10.002;2023-04-05T06:09:30;7.60;99.90
21522;DHT22;10922;45.572;10.002;2023-04-05T06:12:00;7.70;99.90
21522;DHT22;10922;45.572;10.002;2023-04-05T06:14:25;7.80;99.90
21522;DHT22;10922;45.572;10.002;2023-04-05T06:16:53;8.00;99.90
21522;DHT22;10922;45.572;10.002;2023-04-05T06:19:18;8.00;99.90
21522;DHT22;10922;45.572;10.002;2023-04-05T06:21:44;8.10;99.90
21522;DHT22;10922;45.572;10.002;2023-04-05T06:24:10;8.20;99.90
21522;DHT22;10922;45.572;10.002;2023-04-05T06:26:35;8.20;99.90
21522;DHT22;10922;45.572;10.002;2023-04-05T06:29:01;8.20;99.90
21522;DHT22;10922;45.572;10.002;2023-04-05T06:31:31;8.20;99.90
21522;DHT22;10922;45.572;10.002;2023-04-05T06:33:57;8.20;99.90
21522;DHT22;10922;45.572;10.002;2023-04-05T06:36:23;8.20;99.90
21522;DHT22;10922;45.572;10.002;2023-04-05T06:38:49;8.30;99.90
21522;DHT22;10922;45.572;10.002;2023-04-05T06:41:15;8.30;99.90
21522;DHT22;10922;45.572;10.002;2023-04-05T06:43:41;8.30;99.90
21522;DHT22;10922;45.572;10.002;2023-04-05T06:46:07;8.40;99.90
21522;DHT22;10922;45.572;10.002;2023-04-05T06:48:35;8.50;99.90
21522;DHT22;10922;45.572;10.002;2023-04-05T06:51:02;8.40;99.90
21522;DHT22;10922;45.572;10.002;2023-04-05T06:53:28;8.50;99.90
21522;DHT22;10922;45.572;10.002;2023-04-05T06:55:55;8.50;99.90
21522;DHT22;10922;45.572;10.002;2023-04-05T06:58:22;8.40;99.90
21522;DHT22;10922;45.572;10.002;2023-04-05T07:00:48;8.50;99.90
21522;DHT22;10922;45.572;10.002;2023-04-05T07:03:14;8.60;99.90
21522;DHT22;10922;45.572;10.002;2023-04-05T07:05:40;8.80;99.90
21522;DHT22;10922;45.572;10.002;2023-04-05T07:08:06;8.90;99.90
21522;DHT22;10922;45.572;10.002;2023-04-05T07:10:32;9.20;99.90
21522;DHT22;10922;45.572;10.002;2023-04-05T07:12:57;9.40;99.90
21522;DHT22;10922;45.572;10.002;2023-04-05T07:15:23;9.50;99.90
21522;DHT22;10922;45.572;10.002;2023-04-05T07:17:49;9.60;99.90
21522;DHT22;10922;45.572;10.002;2023-04-05T07:20:14;9.70;99.90
21522;DHT22;10922;45.572;10.002;2023-04-05T07:22:41;9.50;99.90
21522;DHT22;10922;45.572;10.002;2023-04-05T07:25:07;9.70;99.90
21522;DHT22;10922;45.572;10.002;2023-04-05T07:27:34;9.90;99.90
21522;DHT22;10922;45.572;10.002;2023-04-05T07:29:59;9.90;99.90
21522;DHT22;10922;45.572;10.002;2023-04-05T07:32:26;9.90;99.90
21522;DHT22;10922;45.572;10.002;2023-04-05T07:34:52;9.80;99.90
21522;DHT22;10922;45.572;10.002;2023-04-05T07:37:17;9.60;99.90
21522;DHT22;10922;45.572;10.002;2023-04-05T07:39:43;9.50;99.90
21522;DHT22;10922;45.572;10.002;2023-04-05T07:42:09;9.40;99.90
21522;DHT22;10922;45.572;10.002;2023-04-05T07:44:34;9.40;99.90
21522;DHT22;10922;45.572;10.002;2023-04-05T07:47:00;9.20;99.90
21522;DHT22;10922;45.572;10.002;2023-04-05T07:49:27;9.20;99.90
21522;DHT22;10922;45.572;10.002;2023-04-05T07:51:54;9.20;99.90
21522;DHT22;10922;45.572;10.002;2023-04-05T07:54:20;9.40;99.90
21522;DHT22;10922;45.572;10.002;2023-04-05T07:56:45;9.40;99.90
21522;DHT22;10922;45.572;10.002;2023-04-05T07:59:12;9.40;99.90
21522;DHT22;10922;45.572;10.002;2023-04-05T08:01:37;9.40;99.90
21522;DHT22;10922;45.572;10.002;2023-04-05T08:04:04;9.50;99.90
21522;DHT22;10922;45.572;10.002;2023-04-05T08:06:29;9.70;99.90
21522;DHT22;10922;45.572;10.002;2023-04-05T08:08:55;9.70;99.90
21522;DHT22;10922;45.572;10.002;2023-04-05T08:11:21;9.90;99.90
21522;DHT22;10922;45.572;10.002;2023-04-05T08:13:47;9.90;99.90
21522;DHT22;10922;45.572;10.002;2023-04-05T08:16:12;9.70;99.90
21522;DHT22;10922;45.572;10.002;2023-04-05T08:18:38;9.50;99.90
21522;DHT22;10922;45.572;10.002;2023-04-05T08:21:04;9.60;99.90
21522;DHT22;10922;45.572;10.002;2023-04-05T08:23:30;9.70;99.90
21522;DHT22;10922;45.572;10.002;2023-04-05T08:25:56;9.60;99.90
21522;DHT22;10922;45.572;10.002;2023-04-05T08:28:22;9.40;99.90
21522;DHT22;10922;45.572;10.002;2023-04-05T08:30:51;9.70;99.90
21522;DHT22;10922;45.572;10.002;2023-04-05T08:33:17;9.60;99.90
21522;DHT22;10922;45.572;10.002;2023-04-05T08:35:43;9.60;99.90
21522;DHT22;10922;45.572;10.002;2023-04-05T08:38:09;9.80;99.90
21522;DHT22;10922;45.572;10.002;2023-04-05T08:45:56;10.00;99.90
21522;DHT22;10922;45.572;10.002;2023-04-05T08:48:23;10.00;99.90
21522;DHT22;10922;45.572;10.002;2023-04-05T08:50:52;10.20;99.90
21522;DHT22;10922;45.572;10.002;2023-04-05T08:53:18;10.30;99.90
21522;DHT22;10922;45.572;10.002;2023-04-05T08:55:48;10.20;99.90
21522;DHT22;10922;45.572;10.002;2023-04-05T08:58:16;9.80;99.90
21522;DHT22;10922;45.572;10.002;2023-04-05T09:00:42;9.60;99.90
21522;DHT22;10922;45.572;10.002;2023-04-05T09:03:14;9.80;99.90
21522;DHT22;10922;45.572;10.002;2023-04-05T09:05:44;9.80;99.90
21522;DHT22;10922;45.572;10.002;2023-04-05T09:08:12;10.20;99.90
21522;DHT22;10922;45.572;10.002;2023-04-05T09:10:38;10.20;99.90
21522;DHT22;10922;45.572;10.002;2023-04-05T09:13:04;10.40;99.90
21522;DHT22;10922;45.572;10.002;2023-04-05T09:15:30;10.90;99.90
21522;DHT22;10922;45.572;10.002;2023-04-05T09:17:56;11.10;99.90
21522;DHT22;10922;45.572;10.002;2023-04-05T09:20:25;11.10;99.90
21522;DHT22;10922;45.572;10.002;2023-04-05T09:22:51;11.20;99.90
21522;DHT22;10922;45.572;10.002;2023-04-05T09:25:36;11.60;99.90
21522;DHT22;10922;45.572;10.002;2023-04-05T09:28:05;11.40;99.90
21522;DHT22;10922;45.572;10.002;2023-04-05T09:30:32;11.80;99.90
21522;DHT22;10922;45.572;10.002;2023-04-05T09:32:58;12.20;99.90
21522;DHT22;10922;45.572;10.002;2023-04-05T09:35:31;11.90;99.90
21522;DHT22;10922;45.572;10.002;2023-04-05T09:37:59;11.60;99.90
21522;DHT22;10922;45.572;10.002;2023-04-05T09:43:10;11.80;99.90
21522;DHT22;10922;45.572;10.002;2023-04-05T09:45:40;12.10;99.90
21522;DHT22;10922;45.572;10.002;2023-04-05T09:48:07;11.80;99.90
21522;DHT22;10922;45.572;10.002;2023-04-05T09:50:34;11.90;99.90
21522;DHT22;10922;45.572;10.002;2023-04-05T09:53:12;12.50;99.90
21522;DHT22;10922;45.572;10.002;2023-04-05T09:55:43;12.50;99.90
21522;DHT22;10922;45.572;10.002;2023-04-05T09:58:12;12.00;99.90
21522;DHT22;10922;45.572;10.002;2023-04-05T10:00:38;12.10;99.90
21522;DHT22;10922;45.572;10.002;2023-04-05T10:03:18;11.30;99.90
21522;DHT22;10922;45.572;10.002;2023-04-05T10:05:44;11.70;99.90
21522;DHT22;10922;45.572;10.002;2023-04-05T10:08:09;12.30;99.90
21522;DHT22;10922;45.572;10.002;2023-04-05T10:10:37;12.70;99.90
21522;DHT22;10922;45.572;10.002;2023-04-05T10:13:08;12.60;99.90
21522;DHT22;10922;45.572;10.002;2023-04-05T10:15:34;12.10;99.90
21522;DHT22;10922;45.572;10.002;2023-04-05T10:18:12;12.00;99.90
21522;DHT22;10922;45.572;10.002;2023-04-05T10:20:41;12.20;99.90
21522;DHT22;10922;45.572;10.002;2023-04-05T10:23:12;12.00;99.90
21522;DHT22;10922;45.572;10.002;2023-04-05T10:28:34;12.90;99.90
21522;DHT22;10922;45.572;10.002;2023-04-05T10:34:44;13.20;99.90
21522;DHT22;10922;45.572;10.002;2023-04-05T10:37:32;13.30;99.90
21522;DHT22;10922;45.572;10.002;2023-04-05T10:40:02;13.30;99.90
21522;DHT22;10922;45.572;10.002;2023-04-05T10:42:39;13.20;99.90
21522;DHT22;10922;45.572;10.002;2023-04-05T10:45:06;13.10;99.90
21522;DHT22;10922;45.572;10.002;2023-04-05T10:47:40;12.10;99.90
21522;DHT22;10922;45.572;10.002;2023-04-05T10:50:08;12.00;99.90
21522;DHT22;10922;45.572;10.002;2023-04-05T10:52:36;12.30;99.90
21522;DHT22;10922;45.572;10.002;2023-04-05T10:55:04;12.40;99.90
21522;DHT22;10922;45.572;10.002;2023-04-05T10:57:40;12.70;99.90
21522;DHT22;10922;45.572;10.002;2023-04-05T11:00:30;12.40;99.90
21522;DHT22;10922;45.572;10.002;2023-04-05T11:02:57;12.50;99.90
21522;DHT22;10922;45.572;10.002;2023-04-05T11:05:36;12.60;99.90
21522;DHT22;10922;45.572;10.002;2023-04-05T11:08:10;12.30;99.90
21522;DHT22;10922;45.572;10.002;2023-04-05T11:10:57;12.50;99.90
21522;DHT22;10922;45.572;10.002;2023-04-05T11:13:58;12.90;99.90
21522;DHT22;10922;45.572;10.002;2023-04-05T11:16:40;12.90;99.90
21522;DHT22;10922;45.572;10.002;2023-04-05T11:19:49;12.60;99.90
21522;DHT22;10922;45.572;10.002;2023-04-05T11:22:27;12.60;99.90
21522;DHT22;10922;45.572;10.002;2023-04-05T11:24:55;12.50;99.90
21522;DHT22;10922;45.572;10.002;2023-04-05T11:27:34;12.80;99.90
21522;DHT22;10922;45.572;10.002;2023-04-05T11:30:06;12.90;99.90
21522;DHT22;10922;45.572;10.002;2023-04-05T11:32:42;12.70;99.90
21522;DHT22;10922;45.572;10.002;2023-04-05T11:35:16;12.60;99.90
21522;DHT22;10922;45.572;10.002;2023-04-05T11:40:36;12.50;99.90
21522;DHT22;10922;45.572;10.002;2023-04-05T11:43:09;12.50;99.90
21522;DHT22;10922;45.572;10.002;2023-04-05T11:45:37;12.40;99.90
21522;DHT22;10922;45.572;10.002;2023-04-05T11:48:04;12.30;99.90
21522;DHT22;10922;45.572;10.002;2023-04-05T11:50:33;12.40;99.90
21522;DHT22;10922;45.572;10.002;2023-04-05T11:53:13;12.80;99.90
21522;DHT22;10922;45.572;10.002;2023-04-05T11:55:42;12.60;99.90
21522;DHT22;10922;45.572;10.002;2023-04-05T11:58:19;12.90;99.90
21522;DHT22;10922;45.572;10.002;2023-04-05T12:01:05;13.00;99.90
21522;DHT22;10922;45.572;10.002;2023-04-05T12:03:35;13.30;99.90
21522;DHT22;10922;45.572;10.002;2023-04-05T12:06:03;13.10;99.90
21522;DHT22;10922;45.572;10.002;2023-04-05T12:08:43;13.00;99.90
21522;DHT22;10922;45.572;10.002;2023-04-05T12:11:24;13.10;99.90
21522;DHT22;10922;45.572;10.002;2023-04-05T12:13:58;13.60;99.90
21522;DHT22;10922;45.572;10.002;2023-04-05T12:16:24;14.00;99.90
21522;DHT22;10922;45.572;10.002;2023-04-05T12:18:57;13.80;99.90
21522;DHT22;10922;45.572;10.002;2023-04-05T12:21:24;14.00;99.90
21522;DHT22;10922;45.572;10.002;2023-04-05T12:23:51;14.20;99.90
21522;DHT22;10922;45.572;10.002;2023-04-05T12:26:17;14.40;99.90
21522;DHT22;10922;45.572;10.002;2023-04-05T12:28:53;14.10;99.90
21522;DHT22;10922;45.572;10.002;2023-04-05T12:31:39;14.20;99.90
21522;DHT22;10922;45.572;10.002;2023-04-05T12:34:06;14.30;99.90
21522;DHT22;10922;45.572;10.002;2023-04-05T12:36:32;13.90;99.90
21522;DHT22;10922;45.572;10.002;2023-04-05T12:38:58;13.80;99.90
21522;DHT22;10922;45.572;10.002;2023-04-05T12:41:30;14.00;99.90
21522;DHT22;10922;45.572;10.002;2023-04-05T12:43:57;13.90;99.90
21522;DHT22;10922;45.572;10.002;2023-04-05T12:46:39;13.50;99.90
21522;DHT22;10922;45.572;10.002;2023-04-05T12:49:05;14.00;99.90
21522;DHT22;10922;45.572;10.002;2023-04-05T12:51:31;15.20;99.90
21522;DHT22;10922;45.572;10.002;2023-04-05T12:54:00;18.90;99.90
21522;DHT22;10922;45.572;10.002;2023-04-05T12:56:28;19.60;99.90
21522;DHT22;10922;45.572;10.002;2023-04-05T12:58:57;21.60;99.90
21522;DHT22;10922;45.572;10.002;2023-04-05T13:01:23;23.70;99.90
21522;DHT22;10922;45.572;10.002;2023-04-05T13:03:52;22.80;99.90
21522;DHT22;10922;45.572;10.002;2023-04-05T13:06:18;24.60;99.90
21522;DHT22;10922;45.572;10.002;2023-04-05T13:08:47;26.50;99.90
21522;DHT22;10922;45.572;10.002;2023-04-05T13:11:12;27.50;99.90
21522;DHT22;10922;45.572;10.002;2023-04-05T13:13:38;28.00;99.90
21522;DHT22;10922;45.572;10.002;2023-04-05T13:16:04;28.00;99.90
21522;DHT22;10922;45.572;10.002;2023-04-05T13:18:29;29.70;99.90
21522;DHT22;10922;45.572;10.002;2023-04-05T13:20:55;30.80;99.90
21522;DHT22;10922;45.572;10.002;2023-04-05T13:23:21;31.10;99.90
21522;DHT22;10922;45.572;10.002;2023-04-05T13:25:47;31.00;99.90
21522;DHT22;10922;45.572;10.002;2023-04-05T13:28:12;30.70;99.90
21522;DHT22;10922;45.572;10.002;2023-04-05T13:30:38;31.40;99.90
21522;DHT22;10922;45.572;10.002;2023-04-05T13:36:11;30.10;99.90
21522;DHT22;10922;45.572;10.002;2023-04-05T13:38:36;30.80;99.90
21522;DHT22;10922;45.572;10.002;2023-04-05T13:41:08;28.70;99.90
21522;DHT22;10922;45.572;10.002;2023-04-05T13:43:34;28.40;99.90
21522;DHT22;10922;45.572;10.002;2023-04-05T13:46:08;29.80;99.90
21522;DHT22;10922;45.572;10.002;2023-04-05T13:48:34;30.70;99.90
21522;DHT22;10922;45.572;10.002;2023-04-05T13:51:00;31.90;99.90
21522;DHT22;10922;45.572;10.002;2023-04-05T13:53:25;32.00;99.90
21522;DHT22;10922;45.572;10.002;2023-04-05T13:55:51;30.50;99.90
21522;DHT22;10922;45.572;10.002;2023-04-05T13:58:19;31.10;99.90
21522;DHT22;10922;45.572;10.002;2023-04-05T14:00:45;31.90;99.90
21522;DHT22;10922;45.572;10.002;2023-04-05T14:03:11;31.10;99.90
21522;DHT22;10922;45.572;10.002;2023-04-05T14:05:40;32.40;99.90
21522;DHT22;10922;45.572;10.002;2023-04-05T14:08:06;31.10;99.90
21522;DHT22;10922;45.572;10.002;2023-04-05T14:10:31;29.70;99.90
21522;DHT22;10922;45.572;10.002;2023-04-05T14:12:57;31.40;99.90
21522;DHT22;10922;45.572;10.002;2023-04-05T14:15:23;29.90;99.90
21522;DHT22;10922;45.572;10.002;2023-04-05T14:17:48;29.90;99.90
21522;DHT22;10922;45.572;10.002;2023-04-05T14:20:14;29.40;99.90
21522;DHT22;10922;45.572;10.002;2023-04-05T14:22:40;27.00;99.90
21522;DHT22;10922;45.572;10.002;2023-04-05T14:25:06;29.40;99.90
21522;DHT22;10922;45.572;10.002;2023-04-05T14:27:32;30.00;99.90
21522;DHT22;10922;45.572;10.002;2023-04-05T14:30:00;30.80;99.90
21522;DHT22;10922;45.572;10.002;2023-04-05T14:32:26;30.30;99.90
21522;DHT22;10922;45.572;10.002;2023-04-05T14:34:51;30.40;99.90
21522;DHT22;10922;45.572;10.002;2023-04-05T14:37:17;31.90;99.90
21522;DHT22;10922;45.572;10.002;2023-04-05T14:39:43;30.20;99.90
21522;DHT22;10922;45.572;10.002;2023-04-05T14:42:09;30.10;99.90
21522;DHT22;10922;45.572;10.002;2023-04-05T14:44:34;32.10;99.90
21522;DHT22;10922;45.572;10.002;2023-04-05T14:47:00;30.10;99.90
21522;DHT22;10922;45.572;10.002;2023-04-05T14:49:26;29.20;99.90
21522;DHT22;10922;45.572;10.002;2023-04-05T14:51:51;30.30;99.90
21522;DHT22;10922;45.572;10.002;2023-04-05T14:54:17;31.90;99.90
21522;DHT22;10922;45.572;10.002;2023-04-05T14:56:43;32.20;99.90
21522;DHT22;10922;45.572;10.002;2023-04-05T14:59:08;32.10;99.90
21522;DHT22;10922;45.572;10.002;2023-04-05T15:01:34;30.30;99.90
21522;DHT22;10922;45.572;10.002;2023-04-05T15:04:01;27.90;99.90
21522;DHT22;10922;45.572;10.002;2023-04-05T15:06:27;26.80;99.90
21522;DHT22;10922;45.572;10.002;2023-04-05T15:08:53;24.80;99.90
21522;DHT22;10922;45.572;10.002;2023-04-05T15:11:19;26.60;99.90
21522;DHT22;10922;45.572;10.002;2023-04-05T15:13:46;28.80;99.90
21522;DHT22;10922;45.572;10.002;2023-04-05T15:16:11;30.40;99.90
21522;DHT22;10922;45.572;10.002;2023-04-05T15:18:37;30.80;99.90
21522;DHT22;10922;45.572;10.002;2023-04-05T15:21:03;30.90;99.90
21522;DHT22;10922;45.572;10.002;2023-04-05T15:23:32;30.30;99.90
21522;DHT22;10922;45.572;10.002;2023-04-05T15:25:58;31.40;99.90
21522;DHT22;10922;45.572;10.002;2023-04-05T15:28:23;31.40;99.90
21522;DHT22;10922;45.572;10.002;2023-04-05T15:30:52;26.10;99.90
21522;DHT22;10922;45.572;10.002;2023-04-05T15:33:18;24.30;99.90
21522;DHT22;10922;45.572;10.002;2023-04-05T15:35:44;26.50;99.90
21522;DHT22;10922;45.572;10.002;2023-04-05T15:38:09;27.90;99.90
21522;DHT22;10922;45.572;10.002;2023-04-05T15:40:35;29.50;99.90
21522;DHT22;10922;45.572;10.002;2023-04-05T15:43:01;29.50;99.90
21522;DHT22;10922;45.572;10.002;2023-04-05T15:45:27;29.20;99.90
21522;DHT22;10922;45.572;10.002;2023-04-05T15:47:52;30.10;99.90
21522;DHT22;10922;45.572;10.002;2023-04-05T15:50:18;29.00;99.90
21522;DHT22;10922;45.572;10.002;2023-04-05T15:52:47;28.50;99.90
21522;DHT22;10922;45.572;10.002;2023-04-05T15:55:13;28.50;99.90
21522;DHT22;10922;45.572;10.002;2023-04-05T15:57:39;28.90;99.90
21522;DHT22;10922;45.572;10.002;2023-04-05T16:00:05;26.60;99.90
21522;DHT22;10922;45.572;10.002;2023-04-05T16:02:34;28.20;99.90